Time;durP1;ratioP1;P1;durP2;ratioP2;P2;SDS_P1;SDS_P2;PMS_P1;PMS_P2;Temp;Humidity;BMP_temperature;BMP_pressure;BME280_temperature;BME280_humidity;BME280_pressure;Samples;Min_cycle;Max_cycle;Signal;HPM_P1;HPM_P2
2023/08/04 00:00:00;;;;;;;4.60;1.55;;;16.40;99.90;;;;;;4232733;28;20050;-80
2023/08/04 00:02:01;;;;;;;6.82;1.40;;;16.40;99.90;;;;;;4233556;28;20081;-81
2023/08/04 00:04:02;;;;;;;6.63;2.05;;;16.40;99.90;;;;;;4233687;28;20036;-81
2023/08/04 00:06:10;;;;;;;4.53;1.50;;;16.40;99.90;;;;;;4233154;28;20114;-81
2023/08/04 00:08:10;;;;;;;4.75;1.40;;;16.40;99.90;;;;;;4214796;28;20234;-81
2023/08/04 00:10:12;;;;;;;9.65;1.48;;;16.40;99.90;;;;;;4233202;28;20047;-81
2023/08/04 00:12:12;;;;;;;9.05;1.77;;;16.40;99.90;;;;;;4233650;28;20036;-80
2023/08/04 00:14:13;;;;;;;10.50;1.40;;;16.30;99.90;;;;;;4232170;28;20122;-80
2023/08/04 00:16:14;;;;;;;2.60;1.25;;;16.30;99.90;;;;;;4215243;28;20549;-80
2023/08/04 00:18:15;;;;;;;6.78;1.60;;;16.40;99.90;;;;;;4233060;28;20039;-81
2023/08/04 00:20:15;;;;;;;7.22;1.45;;;16.40;99.90;;;;;;4231626;28;20116;-80
2023/08/04 00:22:16;;;;;;;7.28;1.35;;;16.30;99.90;;;;;;4215200;28;20044;-81
2023/08/04 00:24:16;;;;;;;8.88;1.70;;;16.30;99.90;;;;;;4232844;28;20510;-80
2023/08/04 00:26:17;;;;;;;5.93;1.08;;;16.20;99.90;;;;;;4231745;28;20054;-80
2023/08/04 00:28:18;;;;;;;9.32;2.65;;;16.30;99.90;;;;;;4232967;28;20066;-80
2023/08/04 00:30:19;;;;;;;11.52;1.80;;;16.30;99.90;;;;;;4214974;28;20456;-81
2023/08/04 00:32:19;;;;;;;7.55;1.20;;;16.30;99.90;;;;;;4231109;28;20047;-80
2023/08/04 00:34:20;;;;;;;2.15;0.88;;;16.30;99.90;;;;;;4231657;28;20040;-80
2023/08/04 00:36:21;;;;;;;8.93;1.58;;;16.20;99.90;;;;;;4231979;28;20136;-80
2023/08/04 00:38:21;;;;;;;3.28;1.15;;;16.20;99.90;;;;;;4214766;28;20055;-80
2023/08/04 00:40:22;;;;;;;8.13;1.27;;;16.20;99.90;;;;;;4233119;28;20039;-80
2023/08/04 00:42:23;;;;;;;6.03;1.50;;;16.20;99.90;;;;;;4231988;28;20035;-80
2023/08/04 00:44:23;;;;;;;3.22;1.00;;;16.20;99.90;;;;;;4214311;28;20044;-80
2023/08/04 00:46:26;;;;;;;6.55;1.25;;;16.20;99.90;;;;;;4233135;28;20376;-81
2023/08/04 00:48:26;;;;;;;5.55;1.05;;;16.10;99.90;;;;;;4231699;28;20477;-80
2023/08/04 00:50:27;;;;;;;5.78;1.50;;;16.10;99.90;;;;;;4231812;28;20052;-80
2023/08/04 00:52:29;;;;;;;4.68;1.00;;;16.10;99.90;;;;;;4231925;28;20043;-80
2023/08/04 00:54:30;;;;;;;2.15;0.90;;;16.10;99.90;;;;;;4225504;28;20057;-80
2023/08/04 00:56:32;;;;;;;5.68;1.70;;;16.10;99.90;;;;;;4231504;28;20087;-81
2023/08/04 00:58:33;;;;;;;8.70;1.70;;;16.00;99.90;;;;;;4231201;28;20043;-81
2023/08/04 01:00:37;;;;;;;5.95;0.98;;;16.00;99.90;;;;;;4232823;28;20035;-81
2023/08/04 01:02:37;;;;;;;7.38;1.25;;;16.00;99.90;;;;;;4232642;28;20055;-81
2023/08/04 01:04:38;;;;;;;4.65;1.10;;;16.10;99.90;;;;;;4214307;28;20396;-81
2023/08/04 01:07:03;;;;;;;3.65;1.15;;;15.80;99.90;;;;;;4232711;28;20048;-81
2023/08/04 01:09:33;;;;;;;3.00;0.60;;;16.00;99.90;;;;;;4230974;28;20051;-81
2023/08/04 01:11:42;;;;;;;3.05;0.70;;;16.00;99.90;;;;;;4222769;28;20048;-81
2023/08/04 01:13:46;;;;;;;3.53;1.15;;;16.00;99.90;;;;;;4231013;28;20081;-81
2023/08/04 01:15:48;;;;;;;2.78;0.90;;;16.00;99.90;;;;;;4231146;28;20103;-81
2023/08/04 01:17:49;;;;;;;3.70;0.90;;;16.00;99.90;;;;;;4230870;28;20048;-81
2023/08/04 01:19:49;;;;;;;4.63;1.25;;;16.00;99.90;;;;;;4230116;28;20518;-81
2023/08/04 01:21:50;;;;;;;2.25;0.90;;;16.00;99.90;;;;;;4230977;28;20047;-81
2023/08/04 01:23:51;;;;;;;6.13;0.75;;;16.00;99.90;;;;;;4230496;28;20036;-81
2023/08/04 01:25:51;;;;;;;6.72;1.10;;;16.00;99.90;;;;;;4231064;28;20062;-81
2023/08/04 01:27:58;;;;;;;6.45;1.67;;;16.00;99.90;;;;;;4230957;28;20075;-81
2023/08/04 01:30:02;;;;;;;5.18;1.27;;;16.00;99.90;;;;;;4231908;28;20264;-81
2023/08/04 01:32:03;;;;;;;8.75;1.20;;;16.00;99.90;;;;;;4230302;28;20063;-81
2023/08/04 01:34:04;;;;;;;6.97;0.95;;;16.00;99.90;;;;;;4230651;28;20036;-81
2023/08/04 01:36:05;;;;;;;4.97;0.80;;;16.00;99.90;;;;;;4230922;28;20364;-81
2023/08/04 01:38:05;;;;;;;8.43;1.10;;;16.00;99.90;;;;;;4231119;28;20436;-81
2023/08/04 01:40:07;;;;;;;3.15;1.00;;;16.00;99.90;;;;;;4230490;28;20098;-81
2023/08/04 01:42:08;;;;;;;4.45;1.10;;;16.00;99.90;;;;;;4231907;28;20046;-81
2023/08/04 01:44:08;;;;;;;7.80;1.38;;;15.90;99.90;;;;;;4231734;28;20547;-81
2023/08/04 01:46:09;;;;;;;5.70;1.13;;;15.90;99.90;;;;;;4230505;28;20131;-81
2023/08/04 01:48:09;;;;;;;5.65;1.10;;;15.90;99.90;;;;;;4231778;28;20558;-81
2023/08/04 01:50:10;;;;;;;5.60;1.10;;;15.90;99.90;;;;;;4231584;28;20062;-81
2023/08/04 01:52:11;;;;;;;6.80;1.30;;;15.90;99.90;;;;;;4230217;28;20048;-81
2023/08/04 01:54:12;;;;;;;9.75;2.10;;;15.90;99.90;;;;;;4230122;28;20412;-81
2023/08/04 01:56:13;;;;;;;3.55;1.35;;;15.90;99.90;;;;;;4230041;28;20105;-81
2023/08/04 01:58:13;;;;;;;6.50;1.30;;;15.90;99.90;;;;;;4230607;28;20043;-81
2023/08/04 02:00:14;;;;;;;9.50;1.88;;;15.90;99.90;;;;;;4231509;28;20046;-81
2023/08/04 02:02:15;;;;;;;6.97;1.17;;;15.90;99.90;;;;;;4231574;28;20043;-81
2023/08/04 02:04:15;;;;;;;10.05;1.77;;;15.90;99.90;;;;;;4230827;28;20136;-81
2023/08/04 02:06:16;;;;;;;9.27;1.52;;;15.90;99.90;;;;;;4231328;28;20050;-81
2023/08/04 02:08:17;;;;;;;4.15;1.70;;;16.00;99.90;;;;;;4231003;28;20134;-81
2023/08/04 02:10:17;;;;;;;5.07;1.40;;;15.90;99.90;;;;;;4231212;28;20035;-81
2023/08/04 02:12:18;;;;;;;6.45;0.93;;;16.10;99.90;;;;;;4231319;28;20086;-81
2023/08/04 02:14:19;;;;;;;3.45;1.00;;;16.00;99.90;;;;;;4230688;28;20096;-81
2023/08/04 02:16:20;;;;;;;5.97;1.25;;;15.90;99.90;;;;;;4229930;28;20051;-81
2023/08/04 02:18:20;;;;;;;6.20;2.40;;;15.90;99.90;;;;;;4230768;28;20044;-81
2023/08/04 02:20:22;;;;;;;3.78;1.10;;;15.90;99.90;;;;;;4230293;28;20123;-81
2023/08/04 02:22:23;;;;;;;4.15;1.10;;;15.90;99.90;;;;;;4229714;28;20357;-81
2023/08/04 02:24:23;;;;;;;9.05;1.45;;;15.90;99.90;;;;;;4229730;28;20074;-81
2023/08/04 02:26:24;;;;;;;3.13;0.88;;;15.90;99.90;;;;;;4231044;28;20048;-81
2023/08/04 02:28:25;;;;;;;4.82;1.25;;;15.90;99.90;;;;;;4212132;28;20154;-81
2023/08/04 02:30:25;;;;;;;5.45;1.00;;;15.90;99.90;;;;;;4231139;28;20046;-81
2023/08/04 02:32:26;;;;;;;2.45;1.08;;;15.80;99.90;;;;;;4230163;28;20097;-81
2023/08/04 02:34:27;;;;;;;2.03;0.95;;;15.90;99.90;;;;;;4212934;28;20123;-81
2023/08/04 02:36:27;;;;;;;3.75;0.90;;;15.90;99.90;;;;;;4229890;28;20054;-81
2023/08/04 02:38:28;;;;;;;3.30;0.93;;;15.90;99.90;;;;;;4230500;28;20047;-81
2023/08/04 02:40:29;;;;;;;2.90;0.77;;;15.80;99.90;;;;;;4229598;28;20109;-81
2023/08/04 02:42:29;;;;;;;5.22;1.48;;;16.00;99.90;;;;;;4229416;28;20051;-81
2023/08/04 02:44:30;;;;;;;7.97;0.95;;;15.80;99.90;;;;;;4230732;27;20046;-81
2023/08/04 02:46:30;;;;;;;3.35;0.90;;;15.80;99.90;;;;;;4230035;28;20108;-80
2023/08/04 02:48:31;;;;;;;9.00;1.10;;;15.80;99.90;;;;;;4228798;28;20047;-81
2023/08/04 02:50:32;;;;;;;3.95;0.98;;;15.80;99.90;;;;;;4229787;28;20050;-80
2023/08/04 02:52:34;;;;;;;2.90;0.98;;;15.80;99.90;;;;;;4212802;28;20052;-80
2023/08/04 02:54:34;;;;;;;6.68;1.20;;;15.90;99.90;;;;;;4230530;28;20040;-80
2023/08/04 02:56:35;;;;;;;3.42;1.10;;;15.70;99.90;;;;;;4229741;28;20116;-81
2023/08/04 02:58:36;;;;;;;4.47;1.10;;;15.80;99.90;;;;;;4229202;28;20048;-81
2023/08/04 03:00:36;;;;;;;6.25;0.98;;;15.70;99.90;;;;;;4229245;28;20043;-81
2023/08/04 03:02:37;;;;;;;3.72;1.20;;;15.80;99.90;;;;;;4212769;28;20040;-80
2023/08/04 03:04:40;;;;;;;7.88;1.92;;;15.70;99.90;;;;;;4229198;28;20114;-80
2023/08/04 03:06:41;;;;;;;5.50;1.35;;;15.70;99.90;;;;;;4212649;28;20055;-80
2023/08/04 03:08:42;;;;;;;5.00;1.45;;;15.70;99.90;;;;;;4229001;28;20499;-80
2023/08/04 03:10:42;;;;;;;5.47;1.42;;;15.70;99.90;;;;;;4230500;28;20044;-81
2023/08/04 03:12:43;;;;;;;5.13;1.33;;;15.60;99.90;;;;;;4212271;28;20032;-81
2023/08/04 03:14:44;;;;;;;4.18;1.30;;;15.60;99.90;;;;;;4228867;28;20051;-80
2023/08/04 03:16:45;;;;;;;7.70;1.30;;;15.60;99.90;;;;;;4230561;28;20040;-80
2023/08/04 03:18:45;;;;;;;4.78;1.20;;;15.60;99.90;;;;;;4230034;28;20181;-80
2023/08/04 03:20:46;;;;;;;4.53;1.58;;;15.80;99.90;;;;;;4228813;28;20040;-80
2023/08/04 03:22:47;;;;;;;2.47;0.95;;;15.70;99.90;;;;;;4229135;28;20054;-80
2023/08/04 03:24:47;;;;;;;3.35;1.30;;;15.60;99.90;;;;;;4228554;28;20502;-80
2023/08/04 03:26:48;;;;;;;5.75;1.00;;;15.40;99.90;;;;;;4231111;28;20035;-80
2023/08/04 03:28:48;;;;;;;5.28;1.20;;;15.30;99.90;;;;;;4212305;28;20085;-80
2023/08/04 03:30:49;;;;;;;3.58;0.90;;;15.50;99.90;;;;;;4230460;28;20051;-81
2023/08/04 03:32:50;;;;;;;4.68;1.60;;;15.50;99.90;;;;;;4230375;28;20040;-80
2023/08/04 03:34:50;;;;;;;3.63;1.15;;;15.50;99.90;;;;;;4229714;28;20083;-80
2023/08/04 03:36:51;;;;;;;5.40;1.13;;;15.30;99.90;;;;;;4230374;28;20062;-80
2023/08/04 03:38:52;;;;;;;4.95;1.10;;;15.40;99.90;;;;;;4230413;28;20428;-80
2023/08/04 03:40:52;;;;;;;8.02;1.35;;;15.60;99.90;;;;;;4229022;28;20046;-81
2023/08/04 03:42:53;;;;;;;8.40;1.40;;;15.60;99.90;;;;;;4229416;28;20050;-81
2023/08/04 03:44:53;;;;;;;6.65;1.48;;;15.60;99.90;;;;;;4211668;28;20044;-80
2023/08/04 03:46:54;;;;;;;2.42;1.63;;;15.10;99.90;;;;;;4230563;28;20048;-80
2023/08/04 03:48:55;;;;;;;4.88;1.15;;;15.30;99.90;;;;;;4230216;28;20131;-80
2023/08/04 03:50:55;;;;;;;6.82;1.40;;;15.30;99.90;;;;;;4230086;28;20551;-80
2023/08/04 03:52:56;;;;;;;6.72;1.02;;;15.10;99.90;;;;;;4228401;28;20047;-80
2023/08/04 03:54:57;;;;;;;4.32;1.25;;;15.10;99.90;;;;;;4229690;28;20554;-81
2023/08/04 03:56:57;;;;;;;3.95;1.02;;;15.00;99.90;;;;;;4230199;28;20075;-80
2023/08/04 03:58:59;;;;;;;3.08;1.20;;;15.20;99.90;;;;;;4229744;28;20039;-80
2023/08/04 04:01:00;;;;;;;5.95;2.15;;;15.10;99.90;;;;;;4230137;28;20086;-80
2023/08/04 04:03:00;;;;;;;4.75;0.88;;;15.30;99.90;;;;;;4230310;28;20051;-80
2023/08/04 04:05:02;;;;;;;2.63;1.45;;;15.20;99.90;;;;;;4228320;28;20052;-80
2023/08/04 04:07:03;;;;;;;1.90;0.65;;;15.30;99.90;;;;;;4212175;28;20054;-80
2023/08/04 04:09:04;;;;;;;1.02;0.70;;;15.40;99.90;;;;;;4228219;28;20107;-80
2023/08/04 04:11:04;;;;;;;1.80;0.73;;;15.40;99.90;;;;;;4229902;28;20635;-80
2023/08/04 04:13:05;;;;;;;1.80;0.90;;;15.40;99.90;;;;;;4230344;28;20506;-80
2023/08/04 04:15:07;;;;;;;3.13;0.80;;;15.40;99.90;;;;;;4228419;28;20036;-80
2023/08/04 04:17:09;;;;;;;1.50;0.65;;;15.40;99.90;;;;;;4228890;28;20048;-80
2023/08/04 04:19:09;;;;;;;1.67;0.88;;;15.40;99.90;;;;;;4228019;28;20054;-80
2023/08/04 04:21:10;;;;;;;2.50;0.70;;;15.40;99.90;;;;;;4228612;28;20130;-80
2023/08/04 04:23:11;;;;;;;6.57;1.13;;;15.40;99.90;;;;;;4228824;28;20050;-81
2023/08/04 04:25:11;;;;;;;2.58;1.00;;;15.40;99.90;;;;;;4229098;28;20113;-81
2023/08/04 04:27:12;;;;;;;2.97;1.00;;;15.40;99.90;;;;;;4228939;28;20431;-81
2023/08/04 04:29:13;;;;;;;1.50;0.77;;;15.30;99.90;;;;;;4230031;28;20111;-80
2023/08/04 04:31:13;;;;;;;2.20;1.10;;;15.40;99.90;;;;;;4229990;28;20044;-80
2023/08/04 04:33:14;;;;;;;1.38;1.02;;;15.50;99.90;;;;;;4232770;28;20131;-81
2023/08/04 04:35:14;;;;;;;4.85;1.15;;;15.50;99.90;;;;;;4232180;28;20055;-80
2023/08/04 04:37:15;;;;;;;2.33;1.05;;;15.60;99.90;;;;;;4231501;28;20100;-81
2023/08/04 04:39:16;;;;;;;6.63;1.30;;;15.50;99.90;;;;;;4232598;28;20050;-81
2023/08/04 04:41:16;;;;;;;2.25;1.05;;;15.50;99.90;;;;;;4214719;28;20442;-81
2023/08/04 04:43:17;;;;;;;5.18;1.02;;;15.50;99.90;;;;;;4232857;28;20047;-81
2023/08/04 04:45:19;;;;;;;3.80;1.13;;;15.50;99.90;;;;;;4232619;28;20391;-80
2023/08/04 04:47:19;;;;;;;1.13;0.90;;;15.50;99.90;;;;;;4230994;28;20135;-81
2023/08/04 04:49:20;;;;;;;4.43;1.05;;;15.30;99.90;;;;;;4214300;28;20484;-81
2023/08/04 04:51:21;;;;;;;6.20;1.27;;;15.40;99.90;;;;;;4232674;28;20043;-81
2023/08/04 04:53:22;;;;;;;4.57;1.30;;;15.70;99.90;;;;;;4232410;28;20050;-81
2023/08/04 04:55:22;;;;;;;4.30;1.30;;;15.60;99.90;;;;;;4231952;28;20130;-80
2023/08/04 04:57:23;;;;;;;6.05;1.20;;;15.60;99.90;;;;;;4232869;28;20048;-80
2023/08/04 04:59:23;;;;;;;2.05;1.17;;;15.60;99.90;;;;;;4231173;28;20047;-81
2023/08/04 05:01:24;;;;;;;2.60;1.13;;;15.60;99.90;;;;;;4231610;28;20086;-81
2023/08/04 05:03:25;;;;;;;2.78;1.10;;;15.60;99.90;;;;;;4231496;28;20051;-81
2023/08/04 05:05:25;;;;;;;1.80;1.10;;;15.60;99.90;;;;;;4230935;28;20127;-80
2023/08/04 05:07:27;;;;;;;6.10;1.10;;;15.60;99.90;;;;;;4231938;28;20032;-81
2023/08/04 05:09:28;;;;;;;3.05;1.08;;;15.60;99.90;;;;;;4230836;28;20056;-81
2023/08/04 05:11:29;;;;;;;1.63;1.15;;;15.70;99.90;;;;;;4232601;28;20047;-81
2023/08/04 05:13:29;;;;;;;4.32;1.27;;;15.70;99.90;;;;;;4232587;28;20044;-81
2023/08/04 05:15:30;;;;;;;5.15;1.90;;;15.70;99.90;;;;;;4231294;28;20479;-80
2023/08/04 05:17:30;;;;;;;3.20;1.30;;;15.70;99.90;;;;;;4230723;28;20116;-80
2023/08/04 05:19:31;;;;;;;1.95;1.13;;;15.70;99.90;;;;;;4231043;28;20407;-80
2023/08/04 05:21:32;;;;;;;3.25;1.25;;;15.70;99.90;;;;;;4232972;28;20047;-80
2023/08/04 05:23:32;;;;;;;2.65;1.33;;;15.70;99.90;;;;;;4214183;28;20052;-81
2023/08/04 05:25:33;;;;;;;4.95;1.05;;;15.70;99.90;;;;;;4230986;28;20073;-80
2023/08/04 05:27:34;;;;;;;2.65;1.55;;;15.70;99.90;;;;;;4230923;28;20048;-81
2023/08/04 05:29:35;;;;;;;2.95;1.60;;;15.80;99.90;;;;;;4231993;28;20043;-80
2023/08/04 05:31:36;;;;;;;3.90;1.30;;;15.80;99.90;;;;;;4230772;28;20523;-80
2023/08/04 05:33:37;;;;;;;2.38;1.23;;;15.80;99.90;;;;;;4230994;28;20058;-80
2023/08/04 05:35:38;;;;;;;4.85;1.83;;;15.80;99.90;;;;;;4231364;28;20089;-80
2023/08/04 05:37:39;;;;;;;4.32;1.48;;;15.90;99.90;;;;;;4231321;28;20468;-80
2023/08/04 05:39:40;;;;;;;6.93;1.40;;;15.80;99.90;;;;;;4231233;28;20126;-81
2023/08/04 05:41:44;;;;;;;4.57;1.63;;;15.90;99.90;;;;;;4231724;28;20145;-80
2023/08/04 05:43:44;;;;;;;3.08;1.58;;;15.90;99.90;;;;;;4248208;28;20046;-80
2023/08/04 05:45:50;;;;;;;7.95;1.50;;;15.90;99.90;;;;;;4249826;28;20039;-80
2023/08/04 05:47:50;;;;;;;4.43;1.70;;;15.90;99.90;;;;;;4231543;28;20127;-81
2023/08/04 05:49:51;;;;;;;3.03;1.70;;;15.90;99.90;;;;;;4231432;28;20044;-80
2023/08/04 05:51:52;;;;;;;3.55;1.40;;;16.10;99.90;;;;;;4231378;28;20048;-81
2023/08/04 05:53:52;;;;;;;3.30;1.20;;;15.90;99.90;;;;;;4230325;28;20106;-80
2023/08/04 05:55:53;;;;;;;4.70;1.20;;;15.90;99.90;;;;;;4230407;28;20561;-80
2023/08/04 05:57:55;;;;;;;2.58;1.17;;;16.00;99.90;;;;;;4231551;28;20040;-80
2023/08/04 05:59:55;;;;;;;3.70;1.30;;;16.00;99.90;;;;;;4230252;28;20062;-80
2023/08/04 06:01:56;;;;;;;4.05;1.52;;;16.10;99.90;;;;;;4231042;28;20047;-80
2023/08/04 06:03:57;;;;;;;4.15;1.23;;;16.10;99.90;;;;;;4229853;28;20047;-81
2023/08/04 06:05:59;;;;;;;1.20;1.00;;;16.10;99.90;;;;;;4230747;28;20087;-81
2023/08/04 06:08:00;;;;;;;2.20;1.05;;;16.10;99.90;;;;;;4230347;28;20404;-81
2023/08/04 06:10:01;;;;;;;3.30;1.67;;;16.10;99.90;;;;;;4230224;28;20630;-80
2023/08/04 06:12:02;;;;;;;2.67;1.33;;;16.20;99.90;;;;;;4230058;28;20051;-80
2023/08/04 06:14:03;;;;;;;2.03;1.23;;;16.20;99.90;;;;;;4230503;28;20119;-81
2023/08/04 06:16:03;;;;;;;3.17;1.40;;;16.20;99.90;;;;;;4231190;28;20044;-80
2023/08/04 06:18:04;;;;;;;1.77;1.20;;;16.20;99.90;;;;;;4231064;28;20081;-80
2023/08/04 06:20:05;;;;;;;5.78;1.27;;;16.30;99.90;;;;;;4230281;28;20040;-81
2023/08/04 06:22:09;;;;;;;2.70;1.60;;;16.20;99.90;;;;;;4230194;28;20506;-81
2023/08/04 06:24:28;;;;;;;2.95;1.00;;;16.30;99.90;;;;;;4230264;28;20039;-81
2023/08/04 06:26:29;;;;;;;3.13;1.38;;;16.30;99.90;;;;;;4232064;28;20058;-80
2023/08/04 06:28:30;;;;;;;3.15;1.30;;;16.30;99.90;;;;;;4232902;28;20055;-80
2023/08/04 06:30:31;;;;;;;5.57;1.20;;;16.40;99.90;;;;;;4230352;28;20047;-80
2023/08/04 06:32:32;;;;;;;3.53;1.15;;;16.40;99.90;;;;;;4230653;28;20135;-80
2023/08/04 06:34:32;;;;;;;2.72;1.50;;;16.40;99.90;;;;;;4237903;28;20417;-80
2023/08/04 06:36:33;;;;;;;2.42;1.23;;;15.40;99.90;;;;;;4239965;28;20048;-80
2023/08/04 06:38:34;;;;;;;2.85;1.60;;;16.50;99.90;;;;;;4233456;28;20126;-81
2023/08/04 06:40:34;;;;;;;4.50;1.00;;;16.60;99.90;;;;;;4229907;28;20044;-81
2023/08/04 06:42:35;;;;;;;2.58;1.05;;;16.60;99.90;;;;;;4230001;28;20039;-80
2023/08/04 06:44:36;;;;;;;6.45;1.30;;;16.70;99.90;;;;;;4229513;28;20044;-80
2023/08/04 06:46:36;;;;;;;7.32;1.30;;;16.70;99.90;;;;;;4230295;28;20047;-80
2023/08/04 06:48:37;;;;;;;2.95;1.30;;;16.70;99.90;;;;;;4230791;28;20040;-80
2023/08/04 06:50:38;;;;;;;4.72;1.30;;;16.80;99.90;;;;;;4212963;28;20466;-80
2023/08/04 06:52:38;;;;;;;2.38;1.30;;;16.80;99.90;;;;;;4229712;28;20093;-80
2023/08/04 06:54:39;;;;;;;4.68;1.30;;;16.90;99.90;;;;;;4211566;28;20093;-80
2023/08/04 06:56:40;;;;;;;8.98;2.95;;;16.90;99.90;;;;;;4229849;28;20404;-80
2023/08/04 06:58:42;;;;;;;3.75;1.38;;;17.00;99.90;;;;;;4229602;28;20431;-80
2023/08/04 07:00:43;;;;;;;6.07;1.70;;;17.00;99.90;;;;;;4230707;28;20473;-80
2023/08/04 07:02:50;;;;;;;4.03;1.77;;;17.10;99.90;;;;;;4231701;28;20032;-80
2023/08/04 07:04:50;;;;;;;2.22;1.10;;;17.10;99.90;;;;;;4233564;28;20520;-80
2023/08/04 07:06:51;;;;;;;3.38;1.48;;;17.20;99.90;;;;;;4220382;28;20040;-80
2023/08/04 07:08:52;;;;;;;8.23;1.67;;;17.20;99.90;;;;;;4236496;28;20116;-80
2023/08/04 07:10:55;;;;;;;2.67;1.25;;;17.20;99.90;;;;;;4229732;28;20053;-80
2023/08/04 07:12:55;;;;;;;3.58;1.48;;;17.30;99.90;;;;;;4212814;28;20066;-81
2023/08/04 07:14:56;;;;;;;5.55;1.65;;;17.30;99.90;;;;;;4230579;28;20032;-80
2023/08/04 07:16:57;;;;;;;5.88;1.90;;;17.40;99.90;;;;;;4229444;28;20105;-80
2023/08/04 07:18:59;;;;;;;6.50;1.35;;;17.40;99.90;;;;;;4212320;28;20052;-80
2023/08/04 07:21:10;;;;;;;4.90;2.20;;;17.40;99.90;;;;;;4230450;28;20075;-81
2023/08/04 07:23:11;;;;;;;4.95;1.20;;;17.40;99.90;;;;;;4229468;28;20119;-80
2023/08/04 07:25:12;;;;;;;2.28;1.00;;;17.50;99.90;;;;;;4234265;28;20073;-81
2023/08/04 07:27:13;;;;;;;5.95;1.25;;;17.50;99.90;;;;;;4230461;28;20052;-80
2023/08/04 07:29:14;;;;;;;6.32;1.60;;;17.50;99.90;;;;;;4211715;28;20478;-80
2023/08/04 07:31:14;;;;;;;3.80;1.40;;;17.50;99.90;;;;;;4230320;28;20046;-80
2023/08/04 07:33:15;;;;;;;4.47;1.50;;;17.50;99.90;;;;;;4212851;28;20049;-80
2023/08/04 07:35:16;;;;;;;2.65;1.27;;;17.50;99.90;;;;;;4229977;28;20051;-80
2023/08/04 07:37:17;;;;;;;4.72;1.50;;;17.40;99.90;;;;;;4230486;28;20032;-80
2023/08/04 07:39:17;;;;;;;2.38;1.17;;;17.40;99.90;;;;;;4211896;28;20082;-80
2023/08/04 07:41:19;;;;;;;4.30;1.38;;;17.40;99.90;;;;;;4230265;28;20048;-81
2023/08/04 07:43:20;;;;;;;3.33;1.08;;;17.40;99.90;;;;;;4212151;28;20121;-80
2023/08/04 07:45:21;;;;;;;5.25;1.20;;;17.30;99.90;;;;;;4211836;28;20122;-81
2023/08/04 07:47:21;;;;;;;8.73;1.55;;;17.30;99.90;;;;;;4212127;28;20451;-81
2023/08/04 07:49:22;;;;;;;4.28;1.20;;;17.20;99.90;;;;;;4229974;28;20479;-80
2023/08/04 07:51:23;;;;;;;4.03;1.45;;;17.20;99.90;;;;;;4211828;28;20050;-80
2023/08/04 07:53:23;;;;;;;3.20;1.08;;;17.10;99.90;;;;;;4230427;28;20042;-80
2023/08/04 07:55:24;;;;;;;2.50;1.10;;;17.10;99.90;;;;;;4230095;28;20047;-80
2023/08/04 07:57:24;;;;;;;2.90;0.98;;;17.00;99.90;;;;;;4230636;28;20093;-80
2023/08/04 07:59:25;;;;;;;3.10;1.10;;;17.00;99.90;;;;;;4231846;28;20043;-79
2023/08/04 08:01:26;;;;;;;1.92;1.00;;;16.90;99.90;;;;;;4240287;28;20043;-79
2023/08/04 08:03:26;;;;;;;4.05;1.00;;;16.80;99.90;;;;;;4242118;28;20050;-80
2023/08/04 08:05:28;;;;;;;3.28;1.13;;;16.70;99.90;;;;;;4222219;28;20109;-80
2023/08/04 08:07:28;;;;;;;6.03;1.27;;;16.70;99.90;;;;;;4216615;28;20107;-79
2023/08/04 08:09:29;;;;;;;3.42;1.23;;;16.60;99.90;;;;;;4232768;28;20427;-80
2023/08/04 08:11:30;;;;;;;7.10;1.20;;;16.90;99.90;;;;;;4216902;28;20044;-80
2023/08/04 08:13:30;;;;;;;3.42;1.45;;;16.60;99.90;;;;;;4234193;28;20043;-80
2023/08/04 08:15:33;;;;;;;4.00;1.10;;;16.60;99.90;;;;;;4215352;28;20071;-80
2023/08/04 08:17:33;;;;;;;4.38;1.30;;;16.70;99.90;;;;;;4233669;28;20042;-80
2023/08/04 08:19:34;;;;;;;7.97;1.52;;;16.80;99.90;;;;;;4232299;28;20047;-80
2023/08/04 08:21:34;;;;;;;6.68;2.05;;;16.80;99.90;;;;;;4215301;28;20480;-80
2023/08/04 08:23:36;;;;;;;6.75;1.55;;;16.90;99.90;;;;;;4232663;28;20368;-80
2023/08/04 08:25:37;;;;;;;5.30;1.63;;;17.10;99.90;;;;;;4233152;28;20120;-80
2023/08/04 08:27:38;;;;;;;7.95;1.95;;;17.10;99.90;;;;;;4215342;28;20055;-80
2023/08/04 08:29:41;;;;;;;6.13;1.60;;;17.20;99.90;;;;;;4232468;28;20054;-80
2023/08/04 08:31:41;;;;;;;6.18;1.75;;;17.40;99.90;;;;;;4232698;28;20052;-80
2023/08/04 08:33:42;;;;;;;5.05;1.15;;;17.50;99.90;;;;;;4232130;28;20058;-80
2023/08/04 08:35:43;;;;;;;5.10;1.65;;;17.70;99.90;;;;;;4231772;28;20145;-80
2023/08/04 08:37:43;;;;;;;7.03;1.27;;;17.90;99.90;;;;;;4233247;28;20396;-80
2023/08/04 08:39:44;;;;;;;8.20;1.60;;;18.10;99.90;;;;;;4233127;28;20040;-80
2023/08/04 08:41:44;;;;;;;5.95;1.40;;;18.20;99.90;;;;;;4231576;28;20054;-80
2023/08/04 08:43:46;;;;;;;3.17;1.30;;;18.30;99.90;;;;;;4232508;28;20052;-80
2023/08/04 08:45:48;;;;;;;8.18;1.40;;;18.30;99.90;;;;;;4232583;27;20487;-81
2023/08/04 08:47:48;;;;;;;5.88;1.35;;;18.30;99.90;;;;;;4231636;28;20081;-80
2023/08/04 08:49:55;;;;;;;7.28;1.83;;;18.30;99.90;;;;;;4214547;28;20063;-80
2023/08/04 08:51:56;;;;;;;6.65;1.88;;;18.20;99.90;;;;;;4231562;28;20051;-80
2023/08/04 08:53:58;;;;;;;5.05;1.35;;;18.20;99.90;;;;;;4231432;28;20069;-80
2023/08/04 08:56:03;;;;;;;6.70;1.20;;;18.20;99.90;;;;;;4233236;28;20059;-80
2023/08/04 08:58:04;;;;;;;3.20;1.30;;;18.30;99.90;;;;;;4231183;28;20036;-80
2023/08/04 09:00:05;;;;;;;7.25;1.33;;;18.50;99.90;;;;;;4232167;28;20039;-79
2023/08/04 09:02:06;;;;;;;6.05;1.10;;;18.50;99.90;;;;;;4214745;28;20131;-80
2023/08/04 09:04:07;;;;;;;5.50;1.55;;;18.60;99.90;;;;;;4230963;28;20108;-80
2023/08/04 09:06:08;;;;;;;4.32;1.13;;;18.70;99.90;;;;;;4231180;28;20043;-80
2023/08/04 09:08:09;;;;;;;4.10;0.80;;;18.80;99.90;;;;;;4231311;28;20047;-80
2023/08/04 09:10:09;;;;;;;3.20;0.95;;;19.30;99.90;;;;;;4232163;28;20081;-80
2023/08/04 09:12:11;;;;;;;6.55;1.15;;;19.80;99.90;;;;;;4214424;28;20056;-80
2023/08/04 09:14:12;;;;;;;5.22;1.52;;;20.10;99.90;;;;;;4232641;28;20048;-80
2023/08/04 09:16:13;;;;;;;7.43;1.20;;;20.50;99.90;;;;;;4231265;28;20044;-81
2023/08/04 09:18:33;;;;;;;3.35;1.05;;;20.80;99.90;;;;;;4231806;28;20078;-81
2023/08/04 09:20:34;;;;;;;9.02;1.42;;;20.80;99.90;;;;;;4214226;28;20469;-81
2023/08/04 09:22:42;;;;;;;7.22;1.75;;;20.90;99.90;;;;;;4231267;28;20088;-81
2023/08/04 09:24:59;;;;;;;7.65;1.45;;;21.20;99.90;;;;;;4230609;28;20043;-81
2023/08/04 09:26:59;;;;;;;6.68;1.45;;;21.60;99.90;;;;;;4213865;28;20094;-81
2023/08/04 09:29:05;;;;;;;5.85;1.35;;;21.90;99.90;;;;;;4231965;28;20039;-81
2023/08/04 09:31:09;;;;;;;7.72;1.10;;;21.80;99.90;;;;;;4231143;28;20048;-80
2023/08/04 09:33:10;;;;;;;3.13;1.23;;;21.50;99.90;;;;;;4230702;28;20553;-81
2023/08/04 09:35:12;;;;;;;6.13;1.40;;;21.10;99.90;;;;;;4230231;28;20114;-81
2023/08/04 09:37:15;;;;;;;6.80;1.17;;;20.80;99.90;;;;;;4213859;28;20043;-80
2023/08/04 09:39:17;;;;;;;8.45;1.42;;;20.60;99.90;;;;;;4230446;28;20097;-81
2023/08/04 09:41:18;;;;;;;10.20;1.85;;;20.50;99.90;;;;;;4230506;28;20055;-81
2023/08/04 09:43:20;;;;;;;5.82;1.23;;;20.50;99.90;;;;;;4213913;28;20534;-80
2023/08/04 09:45:21;;;;;;;8.35;1.40;;;20.90;99.90;;;;;;4229509;28;20044;-81
2023/08/04 09:47:24;;;;;;;9.48;1.10;;;20.50;99.90;;;;;;4230538;28;20405;-81
2023/08/04 09:49:25;;;;;;;7.25;1.67;;;20.50;99.90;;;;;;4230363;28;20097;-80
2023/08/04 09:51:26;;;;;;;4.72;1.17;;;20.50;99.90;;;;;;4231906;28;20045;-81
2023/08/04 09:53:27;;;;;;;6.40;1.50;;;20.70;99.90;;;;;;4231941;28;20039;-81
2023/08/04 09:55:28;;;;;;;6.38;1.88;;;21.00;99.90;;;;;;4229831;28;20120;-81
2023/08/04 09:57:29;;;;;;;4.05;0.93;;;21.30;99.90;;;;;;4229854;28;20055;-81
2023/08/04 09:59:30;;;;;;;6.72;1.50;;;21.90;99.90;;;;;;4240868;28;20099;-80
2023/08/04 10:01:31;;;;;;;3.88;0.90;;;22.20;99.90;;;;;;4234434;28;20051;-81
2023/08/04 10:03:40;;;;;;;4.95;1.00;;;22.60;99.90;;;;;;4232866;28;20066;-80
2023/08/04 10:05:41;;;;;;;1.40;0.68;;;22.90;99.90;;;;;;4241318;28;20043;-80
2023/08/04 10:07:42;;;;;;;6.35;0.80;;;23.00;99.90;;;;;;4244194;28;20055;-80
2023/08/04 10:09:45;;;;;;;1.70;0.80;;;23.10;99.90;;;;;;4243916;28;20510;-81
2023/08/04 10:11:46;;;;;;;4.32;0.70;;;23.20;99.90;;;;;;4243798;28;20046;-81
2023/08/04 10:13:53;;;;;;;3.78;0.95;;;23.50;99.90;;;;;;4233138;28;20039;-81
2023/08/04 10:15:57;;;;;;;4.47;0.80;;;23.80;99.90;;;;;;4230980;28;20569;-81
2023/08/04 10:17:58;;;;;;;2.33;0.65;;;23.80;99.90;;;;;;4231271;28;20062;-80
2023/08/04 10:20:05;;;;;;;4.65;0.80;;;23.60;99.90;;;;;;4228604;28;20111;-81
2023/08/04 10:22:08;;;;;;;4.15;0.80;;;23.30;99.90;;;;;;4250286;28;20108;-81
2023/08/04 10:24:13;;;;;;;3.65;0.55;;;23.30;99.90;;;;;;4249001;28;20046;-81
2023/08/04 10:26:14;;;;;;;2.05;0.70;;;23.50;99.90;;;;;;4227717;28;20040;-80
2023/08/04 10:28:16;;;;;;;3.20;0.60;;;23.40;99.90;;;;;;4244459;28;20065;-80
2023/08/04 10:30:18;;;;;;;2.17;0.52;;;23.20;99.90;;;;;;4231259;28;20126;-81